createdAt,value
2018-09-13T00:01:13.913Z,4.97
2018-09-13T00:03:42.415Z,5.17
2018-09-13T00:06:11.789Z,5.10
2018-09-13T00:08:40.283Z,5.50
2018-09-13T00:11:08.792Z,5.03
2018-09-13T00:13:37.535Z,4.93
2018-09-13T00:16:06.027Z,5.20
2018-09-13T00:18:34.542Z,4.60
2018-09-13T00:21:03.284Z,5.07
2018-09-13T00:23:31.778Z,5.23
2018-09-13T00:26:00.271Z,5.13
2018-09-13T00:28:28.767Z,4.97
2018-09-13T00:30:57.727Z,5.00
2018-09-13T00:33:26.225Z,5.43
2018-09-13T00:35:54.727Z,5.27
2018-09-13T00:38:23.235Z,5.40
2018-09-13T00:40:51.740Z,5.43
2018-09-13T00:43:20.236Z,5.10
2018-09-13T00:45:48.743Z,5.03
2018-09-13T00:48:17.259Z,4.77
2018-09-13T00:50:45.763Z,5.30
2018-09-13T00:53:14.654Z,5.17
2018-09-13T00:55:43.144Z,4.70
2018-09-13T00:58:11.648Z,5.40
2018-09-13T01:00:40.151Z,5.13
2018-09-13T01:03:08.643Z,5.00
2018-09-13T01:05:37.159Z,4.97
2018-09-13T01:08:05.646Z,4.90
2018-09-13T01:10:34.444Z,5.53
2018-09-13T01:13:02.951Z,4.60
2018-09-13T01:15:31.457Z,5.37
2018-09-13T01:17:59.960Z,4.93
2018-09-13T01:20:28.451Z,5.17
2018-09-13T01:22:56.961Z,4.90
2018-09-13T01:25:25.455Z,5.13
2018-09-13T01:27:53.944Z,4.93
2018-09-13T01:30:22.447Z,4.47
2018-09-13T01:32:50.939Z,4.90
2018-09-13T01:35:19.438Z,5.07
2018-09-13T01:37:47.939Z,5.50
2018-09-13T01:40:16.419Z,5.07
2018-09-13T01:45:27.829Z,5.53
2018-09-13T01:47:56.323Z,5.13
2018-09-13T01:50:24.812Z,5.50
2018-09-13T01:52:53.324Z,5.57
2018-09-13T01:55:21.823Z,4.87
2018-09-13T01:57:50.378Z,5.63
2018-09-13T02:00:18.875Z,4.60
2018-09-13T02:02:50.123Z,4.87
2018-09-13T02:05:18.616Z,5.20
2018-09-13T02:07:47.116Z,5.20
2018-09-13T02:10:15.883Z,5.00
2018-09-13T02:12:44.363Z,4.87
2018-09-13T02:15:12.863Z,4.40
2018-09-13T02:17:41.356Z,4.63
2018-09-13T02:20:10.318Z,5.37
2018-09-13T02:22:38.807Z,5.40
2018-09-13T02:25:07.295Z,4.83
2018-09-13T02:27:35.799Z,5.17
2018-09-13T02:30:04.752Z,5.00
2018-09-13T02:32:33.312Z,5.27
2018-09-13T02:35:01.880Z,4.40
2018-09-13T02:37:30.388Z,4.90
2018-09-13T02:39:58.896Z,5.20
2018-09-13T02:42:27.419Z,5.00
2018-09-13T02:44:55.911Z,5.17
2018-09-13T02:47:24.416Z,5.47
2018-09-13T02:49:52.911Z,5.10
2018-09-13T02:52:21.407Z,5.17
2018-09-13T02:54:49.886Z,5.20
2018-09-13T02:57:18.387Z,5.40
2018-09-13T02:59:46.883Z,5.03
2018-09-13T03:02:15.395Z,5.47
2018-09-13T03:04:43.894Z,4.87
2018-09-13T03:07:12.400Z,5.27
2018-09-13T03:09:40.901Z,4.80
2018-09-13T03:12:09.399Z,4.73
2018-09-13T03:14:37.899Z,4.90
2018-09-13T03:17:06.395Z,5.30
2018-09-13T03:19:34.895Z,4.47
2018-09-13T03:22:03.386Z,5.23
2018-09-13T03:24:31.887Z,5.40
2018-09-13T03:27:00.384Z,5.00
2018-09-13T03:29:28.946Z,5.00
2018-09-13T03:31:57.452Z,5.23
2018-09-13T03:34:25.955Z,5.30
2018-09-13T03:36:54.459Z,5.60
2018-09-13T03:39:22.968Z,5.03
2018-09-13T03:41:51.730Z,4.63
2018-09-13T03:44:20.229Z,5.30
2018-09-13T03:46:49.041Z,5.17
2018-09-13T03:49:17.535Z,4.73
2018-09-13T03:51:46.028Z,4.90
2018-09-13T03:54:14.532Z,5.67
2018-09-13T03:56:43.027Z,5.30
2018-09-13T03:59:11.571Z,5.03
2018-09-13T04:01:40.056Z,5.33
2018-09-13T04:04:08.612Z,5.17
2018-09-13T04:06:37.127Z,4.90
2018-09-13T04:09:09.465Z,5.17
2018-09-13T04:11:37.952Z,5.03
2018-09-13T04:14:06.879Z,5.13
2018-09-13T04:16:35.406Z,4.93
2018-09-13T04:19:03.901Z,5.47
2018-09-13T04:21:32.404Z,5.03
2018-09-13T04:24:01.217Z,4.80
2018-09-13T04:26:30.216Z,4.97
2018-09-13T04:28:58.715Z,4.83
2018-09-13T04:31:27.212Z,5.33
2018-09-13T04:33:55.711Z,5.00
2018-09-13T04:36:24.228Z,5.20
2018-09-13T04:38:53.023Z,5.10
2018-09-13T04:41:21.530Z,5.03
2018-09-13T04:43:50.084Z,4.93
2018-09-13T04:46:18.588Z,5.37
2018-09-13T04:48:47.099Z,5.20
2018-09-13T04:51:15.596Z,5.23
2018-09-13T04:53:44.115Z,4.73
2018-09-13T04:56:12.672Z,5.40
2018-09-13T04:58:41.229Z,5.10
2018-09-13T05:01:09.728Z,5.17
2018-09-13T05:03:38.223Z,4.83
2018-09-13T05:06:06.720Z,5.07
2018-09-13T05:08:35.228Z,5.00
2018-09-13T05:11:03.723Z,4.90
2018-09-13T05:13:32.220Z,5.70
2018-09-13T05:16:00.731Z,5.00
2018-09-13T05:18:29.227Z,4.77
2018-09-13T05:20:57.735Z,5.10
2018-09-13T05:23:26.232Z,5.10
2018-09-13T05:25:54.727Z,5.40
2018-09-13T05:28:23.223Z,4.63
2018-09-13T05:30:51.728Z,5.17
2018-09-13T05:33:20.232Z,5.33
2018-09-13T05:35:48.740Z,4.93
2018-09-13T05:38:17.236Z,5.43
2018-09-13T05:40:45.739Z,5.20
2018-09-13T05:43:14.291Z,5.03
2018-09-13T05:45:42.847Z,5.00
2018-09-13T05:48:11.372Z,4.90
2018-09-13T05:50:39.878Z,4.87
2018-09-13T05:53:08.367Z,4.80
2018-09-13T05:55:36.865Z,5.30
2018-09-13T05:58:05.360Z,4.90
2018-09-13T06:00:33.855Z,4.77
2018-09-13T06:03:02.362Z,5.57
2018-09-13T06:05:30.867Z,4.80
2018-09-13T06:07:59.434Z,4.83
2018-09-13T06:10:27.927Z,5.50
2018-09-13T06:12:56.468Z,4.77
2018-09-13T06:15:24.967Z,5.13
2018-09-13T06:17:53.480Z,4.67
2018-09-13T06:20:21.994Z,5.60
2018-09-13T06:22:50.502Z,5.13
2018-09-13T06:25:18.991Z,5.23
2018-09-13T06:27:47.492Z,5.33
2018-09-13T06:30:15.995Z,4.73
2018-09-13T06:32:44.497Z,5.10
2018-09-13T06:35:13.009Z,4.87
2018-09-13T06:37:41.884Z,5.07
2018-09-13T06:40:10.409Z,5.10
2018-09-13T06:42:38.908Z,5.47
2018-09-13T06:45:07.983Z,4.67
2018-09-13T06:47:36.699Z,5.10
2018-09-13T06:50:05.975Z,5.13
2018-09-13T06:52:34.481Z,5.20
2018-09-13T06:55:02.976Z,5.23
2018-09-13T06:57:31.533Z,5.03
2018-09-13T07:00:00.066Z,5.27
2018-09-13T07:02:28.593Z,5.67
2018-09-13T07:04:57.108Z,5.13
2018-09-13T07:07:25.661Z,4.87
2018-09-13T07:09:55.097Z,5.00
2018-09-13T07:12:23.591Z,5.50
2018-09-13T07:14:52.106Z,5.50
2018-09-13T07:17:20.610Z,5.00
2018-09-13T07:19:49.092Z,4.80
2018-09-13T07:22:17.592Z,5.10
2018-09-13T07:24:46.077Z,4.90
2018-09-13T07:27:14.575Z,4.80
2018-09-13T07:29:43.072Z,4.80
2018-09-13T07:32:11.571Z,4.70
2018-09-13T07:34:40.447Z,5.20
2018-09-13T07:37:08.940Z,4.90
2018-09-13T07:39:37.491Z,5.07
2018-09-13T07:42:06.015Z,4.70
2018-09-13T07:44:34.540Z,4.47
2018-09-13T07:47:03.051Z,4.90
2018-09-13T07:49:31.581Z,4.60
2018-09-13T07:52:00.073Z,4.60
2018-09-13T07:54:28.575Z,4.73
2018-09-13T07:56:57.073Z,4.13
2018-09-13T07:59:25.583Z,4.40
2018-09-13T08:01:54.079Z,4.43
2018-09-13T08:04:22.595Z,4.67
2018-09-13T08:06:51.091Z,4.00
2018-09-13T08:09:19.583Z,4.20
2018-09-13T08:11:48.119Z,4.60
2018-09-13T08:14:16.583Z,4.50
2018-09-13T08:16:45.092Z,4.67
2018-09-13T08:19:13.611Z,4.57
2018-09-13T08:21:42.206Z,4.67
2018-09-13T08:24:10.636Z,4.70
2018-09-13T08:26:39.133Z,4.70
2018-09-13T08:29:07.632Z,4.50
2018-09-13T08:31:36.131Z,4.30
2018-09-13T08:34:04.703Z,4.40
2018-09-13T08:36:33.199Z,4.63
2018-09-13T08:39:01.698Z,4.90
2018-09-13T08:41:30.201Z,4.53
2018-09-13T08:43:58.696Z,5.00
2018-09-13T08:46:27.188Z,4.43
2018-09-13T08:48:55.694Z,4.50
2018-09-13T08:51:24.195Z,4.83
2018-09-13T08:53:52.684Z,4.73
2018-09-13T08:56:21.199Z,4.30
2018-09-13T08:58:49.946Z,4.57
2018-09-13T09:01:18.483Z,4.10
2018-09-13T09:03:46.979Z,4.50
2018-09-13T09:06:15.515Z,4.60
2018-09-13T09:08:44.007Z,4.33
2018-09-13T09:11:12.508Z,4.90
2018-09-13T09:13:41.095Z,4.33
2018-09-13T09:16:09.609Z,4.50
2018-09-13T09:18:38.169Z,4.37
2018-09-13T09:21:06.670Z,4.23
2018-09-13T09:23:35.159Z,4.90
2018-09-13T09:26:03.664Z,4.37
2018-09-13T09:28:32.468Z,4.20
2018-09-13T09:31:00.962Z,4.67
2018-09-13T09:33:29.465Z,4.13
2018-09-13T09:35:57.971Z,4.20
2018-09-13T09:38:26.463Z,4.70
2018-09-13T09:40:54.981Z,4.23
2018-09-13T09:43:23.483Z,4.40
2018-09-13T09:45:51.983Z,4.33
2018-09-13T09:48:20.475Z,4.77
2018-09-13T09:50:48.981Z,4.33
2018-09-13T09:53:17.490Z,4.33
2018-09-13T09:55:46.003Z,3.93
2018-09-13T09:58:14.495Z,4.57
2018-09-13T10:00:48.111Z,4.20
2018-09-13T10:03:16.663Z,4.20
2018-09-13T10:05:45.159Z,4.40
2018-09-13T10:08:13.660Z,4.07
2018-09-13T10:10:42.159Z,4.20
2018-09-13T10:13:10.659Z,3.90
2018-09-13T10:17:46.909Z,3.87
2018-09-13T10:20:20.679Z,4.13
2018-09-13T10:22:54.330Z,4.20
2018-09-13T10:25:28.107Z,4.00
2018-09-13T10:30:09.359Z,4.40
2018-09-13T10:32:43.013Z,4.50
2018-09-13T10:35:16.927Z,4.50
2018-09-13T10:37:50.681Z,4.50
2018-09-13T10:40:24.584Z,4.27
2018-09-13T10:42:58.805Z,4.10
2018-09-13T10:45:32.443Z,4.53
2018-09-13T10:48:06.206Z,4.10
2018-09-13T10:50:39.928Z,4.07
2018-09-13T10:53:13.183Z,4.50
2018-09-13T10:55:41.782Z,4.13
2018-09-13T10:58:10.192Z,3.70
2018-09-13T11:00:38.694Z,3.90
2018-09-13T11:03:07.723Z,4.47
2018-09-13T11:05:36.305Z,4.20
2018-09-13T11:08:04.751Z,3.80
2018-09-13T11:10:33.288Z,4.57
2018-09-13T11:13:08.957Z,3.97
2018-09-13T11:15:37.709Z,4.20
2018-09-13T11:18:07.674Z,4.20
2018-09-13T11:20:36.156Z,4.27
2018-09-13T11:23:04.712Z,4.23
2018-09-13T11:25:33.212Z,4.23
2018-09-13T11:28:01.722Z,4.30
2018-09-13T11:30:30.286Z,4.13
2018-09-13T11:32:58.810Z,4.23
2018-09-13T11:35:27.315Z,4.03
2018-09-13T11:37:55.828Z,4.27
2018-09-13T11:40:24.393Z,4.47
2018-09-13T11:42:52.834Z,4.30
2018-09-13T11:45:21.388Z,4.10
2018-09-13T11:47:49.883Z,4.20
2018-09-13T11:50:18.452Z,4.03
2018-09-13T11:52:46.993Z,3.93
2018-09-13T11:55:15.482Z,4.17
2018-09-13T11:57:43.986Z,3.80
2018-09-13T12:00:12.491Z,4.40
2018-09-13T12:02:40.999Z,4.00
2018-09-13T12:05:09.550Z,4.40
2018-09-13T12:07:38.045Z,3.83
2018-09-13T12:10:07.029Z,4.00
2018-09-13T12:12:35.554Z,4.40
2018-09-13T12:15:04.072Z,4.20
2018-09-13T12:17:32.563Z,4.03
2018-09-13T12:20:01.087Z,4.27
2018-09-13T12:22:29.633Z,4.03
2018-09-13T12:24:58.102Z,4.20
2018-09-13T12:27:26.625Z,4.90
2018-09-13T12:29:55.192Z,4.37
2018-09-13T12:32:23.687Z,4.20
2018-09-13T12:34:52.552Z,4.27
2018-09-13T12:37:21.049Z,4.17
2018-09-13T12:39:49.559Z,3.90
2018-09-13T12:42:18.048Z,3.97
2018-09-13T12:44:46.543Z,4.03
2018-09-13T12:47:15.079Z,4.07
2018-09-13T12:49:43.598Z,3.90
2018-09-13T12:52:12.531Z,3.80
2018-09-13T12:54:41.003Z,3.93
2018-09-13T12:57:09.879Z,4.00
2018-09-13T12:59:38.327Z,3.87
2018-09-13T13:02:06.850Z,3.53
2018-09-13T13:04:35.357Z,3.80
2018-09-13T13:07:03.880Z,3.80
2018-09-13T13:09:32.404Z,3.73
2018-09-13T13:12:00.895Z,4.40
2018-09-13T13:14:29.399Z,3.93
2018-09-13T13:16:57.984Z,4.20
2018-09-13T13:19:26.506Z,4.37
2018-09-13T13:21:54.972Z,4.33
2018-09-13T13:24:23.475Z,4.37
2018-09-13T13:26:51.975Z,4.17
2018-09-13T13:29:20.475Z,4.30
2018-09-13T13:31:48.971Z,4.20
2018-09-13T13:34:17.469Z,3.97
2018-09-13T13:36:45.959Z,4.53
2018-09-13T13:39:14.460Z,4.47
2018-09-13T13:41:42.983Z,4.20
2018-09-13T13:44:11.499Z,4.03
2018-09-13T13:46:39.996Z,4.50
2018-09-13T13:49:08.626Z,4.33
2018-09-13T13:51:37.123Z,3.77
2018-09-13T13:54:05.628Z,4.20
2018-09-13T13:56:34.153Z,4.30
2018-09-13T13:59:02.650Z,4.20
2018-09-13T14:01:31.148Z,4.00
2018-09-13T14:03:59.656Z,3.83
2018-09-13T14:06:28.223Z,4.30
2018-09-13T14:08:56.720Z,4.33
2018-09-13T14:11:25.216Z,3.90
2018-09-13T14:13:53.719Z,4.30
2018-09-13T14:16:22.315Z,4.43
2018-09-13T14:18:50.807Z,4.10
2018-09-13T14:21:19.330Z,4.13
2018-09-13T14:23:47.839Z,3.73
2018-09-13T14:26:16.339Z,4.13
2018-09-13T14:28:44.844Z,4.07
2018-09-13T14:31:13.344Z,4.20
2018-09-13T14:33:42.436Z,4.17
2018-09-13T14:36:10.927Z,4.17
2018-09-13T14:38:39.419Z,4.00
2018-09-13T14:41:07.922Z,4.20
2018-09-13T14:43:36.435Z,4.30
2018-09-13T14:46:05.018Z,4.23
2018-09-13T14:48:33.458Z,4.57
2018-09-13T14:51:02.008Z,4.67
2018-09-13T14:53:30.507Z,3.97
2018-09-13T14:55:59.011Z,4.53
2018-09-13T14:58:27.507Z,4.27
2018-09-13T15:00:56.003Z,4.50
2018-09-13T15:03:24.512Z,4.40
2018-09-13T15:05:53.507Z,4.40
2018-09-13T15:08:22.503Z,4.37
2018-09-13T15:10:51.015Z,4.23
2018-09-13T15:13:19.512Z,4.50
2018-09-13T15:15:48.006Z,4.37
2018-09-13T15:18:16.507Z,4.47
2018-09-13T15:20:45.027Z,4.50
2018-09-13T15:23:13.539Z,4.90
2018-09-13T15:25:42.088Z,4.13
2018-09-13T15:28:10.579Z,4.70
2018-09-13T15:30:39.075Z,4.40
2018-09-13T15:33:07.568Z,4.70
2018-09-13T15:35:36.071Z,4.63
2018-09-13T15:38:04.571Z,4.23
2018-09-13T15:40:33.075Z,4.67
2018-09-13T15:43:01.577Z,4.27
2018-09-13T15:45:30.117Z,4.07
2018-09-13T15:47:58.603Z,4.63
2018-09-13T15:50:27.104Z,4.23
2018-09-13T15:52:55.631Z,4.53
2018-09-13T15:55:24.457Z,4.73
2018-09-13T15:57:52.960Z,4.40
2018-09-13T16:00:21.451Z,4.70
2018-09-13T16:02:49.956Z,4.50
2018-09-13T16:05:18.470Z,4.87
2018-09-13T16:07:46.974Z,4.23
2018-09-13T16:10:15.475Z,4.50
2018-09-13T16:12:44.062Z,4.57
2018-09-13T16:15:12.536Z,4.27
2018-09-13T16:17:41.023Z,4.67
2018-09-13T16:20:09.538Z,4.37
2018-09-13T16:22:38.043Z,4.73
2018-09-13T16:25:06.540Z,4.00
2018-09-13T16:27:35.048Z,4.47
2018-09-13T16:30:03.560Z,4.23
2018-09-13T16:32:32.079Z,4.97
2018-09-13T16:35:00.697Z,4.00
2018-09-13T16:37:34.484Z,4.37
2018-09-13T16:40:10.208Z,4.67
2018-09-13T16:42:54.296Z,4.40
2018-09-13T16:45:27.300Z,4.17
2018-09-13T16:47:57.570Z,4.80
2018-09-13T16:50:26.087Z,4.10
2018-09-13T16:52:54.611Z,4.07
2018-09-13T16:55:23.144Z,4.30
2018-09-13T16:57:52.251Z,4.90
2018-09-13T17:00:22.618Z,4.67
2018-09-13T17:02:51.364Z,4.67
2018-09-13T17:05:19.891Z,4.70
2018-09-13T17:07:48.436Z,4.73
2018-09-13T17:10:16.945Z,4.50
2018-09-13T17:12:45.970Z,4.43
2018-09-13T17:15:14.543Z,4.53
2018-09-13T17:17:43.327Z,4.97
2018-09-13T17:20:11.851Z,4.87
2018-09-13T17:22:40.703Z,4.37
2018-09-13T17:25:09.202Z,4.23
2018-09-13T17:27:37.715Z,4.87
2018-09-13T17:30:06.592Z,4.70
2018-09-13T17:32:35.104Z,4.90
2018-09-13T17:35:03.614Z,4.53
2018-09-13T17:37:32.131Z,4.93
2018-09-13T17:40:00.624Z,5.13
2018-09-13T17:42:29.136Z,4.93
2018-09-13T17:44:57.624Z,5.20
2018-09-13T17:47:26.119Z,5.50
2018-09-13T17:49:54.637Z,5.17
2018-09-13T17:52:23.136Z,5.17
2018-09-13T17:54:51.633Z,5.10
2018-09-13T17:57:20.136Z,5.17
2018-09-13T17:59:48.636Z,5.10
2018-09-13T18:02:17.403Z,5.33
2018-09-13T18:04:45.906Z,4.80
2018-09-13T18:07:14.405Z,5.33
2018-09-13T18:09:42.907Z,6.00
2018-09-13T18:12:11.419Z,6.13
2018-09-13T18:14:39.916Z,5.93
2018-09-13T18:17:08.409Z,6.03
2018-09-13T18:19:36.922Z,5.77
2018-09-13T18:22:05.755Z,6.30
2018-09-13T18:24:34.257Z,6.47
2018-09-13T18:27:02.751Z,6.10
2018-09-13T18:29:31.252Z,6.10
2018-09-13T18:31:59.751Z,5.80
2018-09-13T18:34:28.248Z,6.07
2018-09-13T18:36:56.772Z,6.73
2018-09-13T18:39:25.280Z,5.87
2018-09-13T18:41:53.771Z,6.37
2018-09-13T18:44:22.275Z,6.87
2018-09-13T18:46:50.775Z,6.07
2018-09-13T18:49:19.280Z,6.67
2018-09-13T18:51:47.780Z,6.33
2018-09-13T18:54:16.307Z,6.17
2018-09-13T18:56:44.795Z,6.60
2018-09-13T18:59:13.289Z,6.43
2018-09-13T19:01:41.783Z,7.00
2018-09-13T19:04:10.311Z,6.30
2018-09-13T19:06:38.824Z,6.47
2018-09-13T19:09:10.179Z,6.40
2018-09-13T19:11:38.734Z,6.60
2018-09-13T19:14:07.198Z,6.70
2018-09-13T19:16:36.235Z,6.60
2018-09-13T19:19:04.729Z,7.10
2018-09-13T19:21:33.245Z,6.90
2018-09-13T19:24:01.757Z,6.67
2018-09-13T19:26:30.260Z,6.30
2018-09-13T19:28:58.762Z,6.90
2018-09-13T19:31:27.275Z,7.13
2018-09-13T19:33:55.784Z,6.87
2018-09-13T19:36:24.287Z,7.20
2018-09-13T19:38:52.803Z,7.10
2018-09-13T19:41:21.403Z,7.37
2018-09-13T19:43:50.256Z,7.03
2018-09-13T19:46:18.922Z,6.93
2018-09-13T19:48:47.915Z,7.60
2018-09-13T19:51:16.477Z,7.57
2018-09-13T19:53:44.963Z,7.27
2018-09-13T19:56:13.852Z,7.43
2018-09-13T19:58:42.351Z,7.10
2018-09-13T20:01:10.842Z,7.20
2018-09-13T20:03:39.706Z,7.63
2018-09-13T20:06:08.215Z,7.20
2018-09-13T20:08:36.708Z,6.60
2018-09-13T20:11:05.220Z,7.17
2018-09-13T20:13:33.715Z,7.00
2018-09-13T20:16:02.212Z,6.97
2018-09-13T20:18:30.738Z,7.17
2018-09-13T20:20:59.244Z,6.87
2018-09-13T20:23:27.735Z,7.10
2018-09-13T20:25:56.260Z,6.97
2018-09-13T20:28:24.774Z,6.97
2018-09-13T20:30:53.283Z,7.33
2018-09-13T20:33:21.787Z,6.87
2018-09-13T20:35:50.288Z,7.20
2018-09-13T20:38:18.796Z,7.10
2018-09-13T20:40:47.297Z,7.37
2018-09-13T20:43:15.832Z,7.17
2018-09-13T20:45:44.352Z,6.83
2018-09-13T20:48:12.840Z,7.50
2018-09-13T20:50:41.352Z,7.03
2018-09-13T20:53:09.855Z,7.47
2018-09-13T20:55:38.369Z,7.40
2018-09-13T20:58:07.179Z,8.13
2018-09-13T21:00:35.681Z,7.83
2018-09-13T21:03:04.207Z,8.13
2018-09-13T21:05:32.726Z,7.67
2018-09-13T21:08:01.226Z,7.43
2018-09-13T21:10:29.771Z,7.53
2018-09-13T21:12:58.267Z,7.40
2018-09-13T21:15:26.759Z,8.27
2018-09-13T21:17:55.257Z,7.90
2018-09-13T21:20:23.747Z,7.50
2018-09-13T21:22:52.424Z,7.67
2018-09-13T21:25:20.957Z,7.50
2018-09-13T21:27:49.452Z,7.77
2018-09-13T21:30:17.943Z,7.63
2018-09-13T21:32:46.771Z,7.30
2018-09-13T21:35:15.275Z,7.63
2018-09-13T21:37:43.771Z,7.63
2018-09-13T21:40:12.280Z,7.47
2018-09-13T21:42:40.792Z,7.67
2018-09-13T21:45:09.287Z,7.37
2018-09-13T21:47:37.808Z,7.43
2018-09-13T21:50:06.510Z,7.03
2018-09-13T21:52:35.015Z,6.53
2018-09-13T21:55:03.544Z,7.07
2018-09-13T21:57:32.039Z,7.47
2018-09-13T22:00:00.532Z,7.50
2018-09-13T22:02:29.050Z,7.10
2018-09-13T22:04:57.544Z,7.83
2018-09-13T22:07:26.318Z,7.40
2018-09-13T22:09:54.851Z,7.37
2018-09-13T22:12:23.368Z,6.70
2018-09-13T22:14:51.868Z,7.17
2018-09-13T22:17:21.979Z,6.77
2018-09-13T22:19:50.888Z,7.57
2018-09-13T22:22:19.405Z,7.10
2018-09-13T22:24:47.929Z,7.70
2018-09-13T22:27:16.440Z,6.97
2018-09-13T22:29:44.936Z,7.33
2018-09-13T22:32:13.431Z,7.53
2018-09-13T22:34:41.924Z,7.10
2018-09-13T22:37:10.428Z,7.37
2018-09-13T22:39:38.923Z,8.13
2018-09-13T22:42:07.975Z,7.97
2018-09-13T22:44:39.393Z,7.20
2018-09-13T22:47:08.635Z,7.73
2018-09-13T22:49:37.339Z,6.90
2018-09-13T22:52:06.339Z,7.50
2018-09-13T22:54:34.915Z,7.43
2018-09-13T22:57:03.704Z,7.30
2018-09-13T22:59:32.212Z,7.90
2018-09-13T23:02:00.711Z,7.70
2018-09-13T23:04:29.287Z,7.17
2018-09-13T23:06:58.103Z,7.37
2018-09-13T23:09:26.614Z,7.10
2018-09-13T23:11:55.107Z,7.40
2018-09-13T23:14:23.619Z,6.87
2018-09-13T23:16:52.116Z,6.60
2018-09-13T23:19:20.617Z,7.57
2018-09-13T23:21:49.503Z,7.50
2018-09-13T23:24:18.044Z,7.60
2018-09-13T23:26:46.555Z,7.20
2018-09-13T23:29:15.053Z,7.23
2018-09-13T23:31:43.559Z,7.07
2018-09-13T23:34:12.051Z,7.60
2018-09-13T23:36:40.551Z,7.53
2018-09-13T23:39:10.073Z,7.07
2018-09-13T23:41:39.736Z,7.67
2018-09-13T23:44:08.544Z,7.83
2018-09-13T23:46:37.411Z,7.43
2018-09-13T23:49:05.932Z,7.50
2018-09-13T23:51:34.444Z,7.20
2018-09-13T23:54:02.939Z,7.47
2018-09-13T23:56:31.439Z,7.20
2018-09-13T23:58:59.942Z,7.07
